Time;durP1;ratioP1;P1;durP2;ratioP2;P2;SDS_P1;SDS_P2;PMS_P1;PMS_P2;Temp;Humidity;BMP_temperature;BMP_pressure;BME280_temperature;BME280_humidity;BME280_pressure;Samples;Min_cycle;Max_cycle;Signal;HPM_P1;HPM_P2
2023/01/25 00:01:24;;;;;;;46.85;22.08;;;;;;;5.35;61.31;103923.06;5065434;28;20124;-40
2023/01/25 00:03:49;;;;;;;44.10;21.75;;;;;;;5.32;61.03;103923.72;5061638;28;20037;-42
2023/01/25 00:06:15;;;;;;;45.92;22.20;;;;;;;5.35;61.21;103923.06;5065036;28;20036;-40
2023/01/25 00:08:40;;;;;;;44.72;22.33;;;;;;;5.32;60.85;103914.25;5060423;28;20033;-40
2023/01/25 00:11:05;;;;;;;47.60;24.10;;;;;;;5.37;61.13;103908.59;5064437;28;20394;-41
2023/01/25 00:13:30;;;;;;;43.75;22.02;;;;;;;5.38;61.15;103910.38;5065049;28;20540;-42
2023/01/25 00:16:03;;;;;;;44.28;22.48;;;;;;;5.50;61.03;103907.09;5061724;28;21069;-44
2023/01/25 00:18:29;;;;;;;44.50;22.52;;;;;;;5.23;61.48;103904.84;5064251;28;20139;-40
2023/01/25 00:20:55;;;;;;;50.67;23.40;;;;;;;5.34;61.30;103903.16;5060219;28;20124;-41
2023/01/25 00:23:20;;;;;;;46.55;22.83;;;;;;;5.41;61.70;103896.03;5064859;28;20040;-42
2023/01/25 00:25:45;;;;;;;47.55;23.05;;;;;;;5.41;61.65;103888.25;5061222;28;20044;-40
2023/01/25 00:28:11;;;;;;;44.97;22.35;;;;;;;5.32;62.02;103888.41;5064743;28;20055;-43
2023/01/25 00:30:36;;;;;;;45.83;22.23;;;;;;;5.41;61.66;103885.69;5063947;28;20548;-45
2023/01/25 00:33:25;;;;;;;46.75;22.65;;;;;;;5.47;61.56;103874.91;5061219;28;20120;-42
2023/01/25 00:35:55;;;;;;;42.88;21.90;;;;;;;5.47;61.31;103870.66;5061511;28;20024;-40
2023/01/25 00:38:32;;;;;;;48.00;23.23;;;;;;;4.96;62.50;103876.69;5065232;28;20029;-42
2023/01/25 00:40:58;;;;;;;45.08;22.92;;;;;;;4.85;63.13;103887.03;5061918;28;20047;-41
2023/01/25 00:43:23;;;;;;;46.80;22.83;;;;;;;4.84;62.41;103877.47;5066059;28;20036;-40
2023/01/25 00:45:48;;;;;;;46.88;23.48;;;;;;;5.10;62.42;103877.06;5060254;28;20067;-41
2023/01/25 00:48:14;;;;;;;45.50;23.15;;;;;;;5.18;62.35;103877.72;5064156;28;20455;-43
2023/01/25 00:50:39;;;;;;;43.20;21.90;;;;;;;5.17;62.04;103871.63;5058934;28;20040;-40
2023/01/25 00:53:04;;;;;;;43.58;21.85;;;;;;;5.25;62.01;103874.81;5063949;28;20082;-42
2023/01/25 00:55:30;;;;;;;42.78;21.67;;;;;;;5.35;61.18;103871.34;5064217;28;20062;-41
2023/01/25 00:57:55;;;;;;;44.35;22.20;;;;;;;5.35;61.22;103869.66;5059976;28;20040;-40
2023/01/25 01:00:20;;;;;;;45.03;21.95;;;;;;;5.45;61.38;103871.28;5065154;28;20077;-40
2023/01/25 01:02:46;;;;;;;45.67;21.98;;;;;;;5.42;60.46;103869.38;5061873;28;20036;-40
2023/01/25 01:05:11;;;;;;;42.67;21.73;;;;;;;5.38;61.51;103868.97;5064609;28;20020;-43
2023/01/25 01:07:37;;;;;;;44.40;22.13;;;;;;;5.46;60.84;103865.34;5064323;28;20119;-42
2023/01/25 01:10:03;;;;;;;45.65;22.92;;;;;;;4.94;61.68;103868.78;5060566;28;20033;-41
2023/01/25 01:12:28;;;;;;;45.13;23.00;;;;;;;5.06;61.91;103867.22;5063718;28;20032;-41
2023/01/25 01:14:53;;;;;;;44.97;22.10;;;;;;;5.06;61.39;103866.34;5060270;28;20178;-42
2023/01/25 01:17:19;;;;;;;46.28;22.58;;;;;;;4.67;62.25;103871.66;5045487;28;20033;-43
2023/01/25 01:19:44;;;;;;;46.33;23.33;;;;;;;4.78;62.87;103866.59;5059733;28;20033;-40
2023/01/25 01:22:09;;;;;;;45.20;22.15;;;;;;;4.87;63.23;103869.06;5063325;28;20043;-42
2023/01/25 01:24:35;;;;;;;50.25;22.73;;;;;;;4.70;63.49;103866.72;5063585;28;20036;-43
2023/01/25 01:27:00;;;;;;;44.03;22.90;;;;;;;5.01;63.14;103870.19;5059588;28;20029;-42
2023/01/25 01:29:25;;;;;;;44.08;21.90;;;;;;;5.01;62.89;103865.03;5063411;28;20518;-42
2023/01/25 01:31:52;;;;;;;44.85;22.83;;;;;;;5.11;62.13;103858.19;5059415;28;20374;-43
2023/01/25 01:34:17;;;;;;;47.17;22.92;;;;;;;5.25;62.25;103857.63;5064477;28;20032;-41
2023/01/25 01:36:43;;;;;;;48.72;22.58;;;;;;;5.30;62.13;103865.78;5059501;28;20114;-41
2023/01/25 01:39:09;;;;;;;48.63;23.90;;;;;;;5.30;61.83;103858.03;5063073;28;20437;-45
2023/01/25 01:41:35;;;;;;;43.58;22.85;;;;;;;5.34;62.05;103854.91;5064150;28;20040;-41
2023/01/25 01:44:00;;;;;;;45.63;22.45;;;;;;;5.32;61.67;103854.75;5060200;28;20078;-41
2023/01/25 01:46:34;;;;;;;46.28;22.63;;;;;;;5.30;61.69;103856.34;5064493;28;20040;-44
2023/01/25 01:49:18;;;;;;;46.20;22.67;;;;;;;5.20;61.72;103860.63;5061114;28;20040;-41
2023/01/25 01:51:52;;;;;;;46.33;22.53;;;;;;;5.24;61.86;103861.03;5060397;28;20688;-41
2023/01/25 01:54:24;;;;;;;48.33;22.55;;;;;;;5.29;61.54;103862.28;5064303;28;20029;-40
2023/01/25 01:56:52;;;;;;;48.95;22.80;;;;;;;5.38;61.33;103859.53;5060087;28;20036;-46
2023/01/25 01:59:19;;;;;;;46.22;22.42;;;;;;;5.29;61.52;103854.53;5064170;28;20044;-43
2023/01/25 02:01:45;;;;;;;46.80;21.98;;;;;;;5.10;61.94;103858.06;5059901;28;20033;-43
2023/01/25 02:04:12;;;;;;;45.63;22.25;;;;;;;5.19;61.98;103856.22;5064471;28;20043;-42
2023/01/25 02:06:49;;;;;;;44.85;22.73;;;;;;;5.33;61.46;103850.50;5060795;28;20036;-40
2023/01/25 02:09:19;;;;;;;45.55;22.10;;;;;;;5.35;61.71;103848.94;5065747;28;20129;-45
2023/01/25 02:11:46;;;;;;;45.00;23.02;;;;;;;5.21;61.69;103853.00;5059237;28;20033;-44
2023/01/25 02:14:14;;;;;;;51.22;23.02;;;;;;;4.74;62.52;103851.63;5062976;28;20032;-41
2023/01/25 02:16:40;;;;;;;46.83;22.88;;;;;;;4.76;63.25;103844.88;5058756;28;20047;-41
2023/01/25 02:19:10;;;;;;;47.28;23.35;;;;;;;4.75;62.68;103847.38;5062237;28;20039;-39
2023/01/25 02:21:42;;;;;;;46.85;22.67;;;;;;;5.10;62.17;103846.03;5061831;28;20045;-40
2023/01/25 02:24:15;;;;;;;47.38;22.85;;;;;;;5.16;62.39;103845.63;5040797;28;20032;-40
2023/01/25 02:26:42;;;;;;;44.45;21.95;;;;;;;5.20;62.07;103842.50;5058722;28;20169;-41
2023/01/25 02:29:08;;;;;;;46.20;22.52;;;;;;;5.17;62.15;103843.19;5062265;28;20032;-41
2023/01/25 02:31:34;;;;;;;45.13;21.45;;;;;;;4.66;62.91;103837.16;5061750;28;20039;-41
2023/01/25 02:33:59;;;;;;;43.95;21.27;;;;;;;4.62;62.62;103839.34;5058481;28;20029;-41
2023/01/25 02:36:33;;;;;;;44.53;21.27;;;;;;;4.51;63.17;103840.13;5062420;28;20044;-40
2023/01/25 02:39:04;;;;;;;47.88;21.88;;;;;;;4.86;62.41;103829.41;5057666;28;20037;-40
2023/01/25 02:41:35;;;;;;;46.47;22.25;;;;;;;4.98;61.72;103832.09;5061473;28;20055;-39
2023/01/25 02:44:07;;;;;;;46.15;22.48;;;;;;;4.72;61.82;103831.59;5058210;28;20032;-40
2023/01/25 02:46:35;;;;;;;47.08;22.50;;;;;;;4.97;61.45;103819.03;5062406;28;20060;-40
2023/01/25 02:49:02;;;;;;;44.83;21.40;;;;;;;5.05;61.73;103816.31;5059714;28;20056;-40
2023/01/25 02:51:29;;;;;;;44.65;21.60;;;;;;;5.08;61.58;103815.63;5064398;28;20379;-39
2023/01/25 02:53:56;;;;;;;45.42;22.20;;;;;;;5.15;61.35;103812.78;5060312;28;20429;-42
2023/01/25 02:56:22;;;;;;;45.63;21.50;;;;;;;4.77;62.17;103809.59;5062150;28;20032;-43
2023/01/25 02:58:47;;;;;;;47.55;22.58;;;;;;;4.92;62.06;103800.56;5058254;28;20064;-42
2023/01/25 03:01:13;;;;;;;45.92;22.77;;;;;;;5.13;61.42;103806.56;5061017;28;20394;-41
2023/01/25 03:03:39;;;;;;;45.08;21.92;;;;;;;5.19;61.19;103812.25;5060186;28;20498;-41
2023/01/25 03:06:06;;;;;;;44.58;22.15;;;;;;;4.69;62.43;103806.41;5064973;28;20032;-42
2023/01/25 03:08:31;;;;;;;44.90;22.58;;;;;;;5.07;61.67;103806.06;5062361;28;20043;-39
2023/01/25 03:10:59;;;;;;;46.85;21.90;;;;;;;5.12;61.47;103809.97;5058353;28;20033;-40
2023/01/25 03:13:25;;;;;;;45.03;22.77;;;;;;;5.11;60.64;103803.88;5065004;28;20430;-43
2023/01/25 03:15:50;;;;;;;47.65;22.55;;;;;;;5.08;61.40;103801.03;5062602;28;20043;-42
2023/01/25 03:18:16;;;;;;;48.08;23.77;;;;;;;5.03;61.20;103786.81;5065464;28;20514;-42
2023/01/25 03:20:41;;;;;;;44.03;21.77;;;;;;;5.10;61.28;103794.31;5057952;28;20033;-41
2023/01/25 03:23:06;;;;;;;47.70;22.55;;;;;;;5.26;60.58;103789.59;5064178;28;20029;-40
2023/01/25 03:25:32;;;;;;;46.45;22.48;;;;;;;5.13;61.02;103788.47;5068232;28;20095;-42
2023/01/25 03:27:57;;;;;;;46.03;21.95;;;;;;;5.04;61.11;103790.31;5064120;28;20055;-42
2023/01/25 03:30:22;;;;;;;46.83;22.40;;;;;;;5.11;61.47;103790.97;5064418;28;20025;-45
2023/01/25 03:32:47;;;;;;;46.47;22.67;;;;;;;4.97;60.59;103788.91;5058075;28;20585;-41
2023/01/25 03:35:13;;;;;;;48.40;22.73;;;;;;;4.82;60.61;103785.94;5061461;28;20028;-41
2023/01/25 03:37:38;;;;;;;44.72;21.75;;;;;;;4.92;61.28;103789.31;5058562;28;20128;-40
2023/01/25 03:40:04;;;;;;;44.78;22.63;;;;;;;4.55;62.15;103794.00;5062255;28;20452;-43
2023/01/25 03:42:29;;;;;;;49.60;22.38;;;;;;;4.60;62.26;103779.78;5065072;28;20522;-40
2023/01/25 03:44:55;;;;;;;45.53;22.42;;;;;;;4.95;61.12;103772.34;5060611;28;20127;-45
2023/01/25 03:47:20;;;;;;;43.80;21.48;;;;;;;5.06;61.14;103774.13;5064283;28;20124;-44
2023/01/25 03:49:45;;;;;;;46.38;22.75;;;;;;;4.34;62.87;103775.00;5060584;28;20037;-41
2023/01/25 03:52:11;;;;;;;45.85;22.08;;;;;;;4.30;63.68;103777.22;5061201;28;20059;-40
2023/01/25 03:54:36;;;;;;;50.72;23.58;;;;;;;4.28;64.00;103777.06;5060817;28;20036;-41
2023/01/25 03:57:01;;;;;;;48.05;22.65;;;;;;;4.68;62.33;103776.16;5057446;28;20036;-43
2023/01/25 03:59:26;;;;;;;46.00;22.52;;;;;;;4.58;63.00;103776.16;5061859;28;20090;-42
2023/01/25 04:01:52;;;;;;;45.33;22.10;;;;;;;4.88;61.99;103768.34;5057164;28;20048;-40
2023/01/25 04:04:17;;;;;;;50.22;23.23;;;;;;;4.82;61.63;103774.69;5061353;28;20055;-41
2023/01/25 04:06:43;;;;;;;45.42;21.95;;;;;;;4.99;61.94;103763.19;5058513;28;20475;-40
2023/01/25 04:09:08;;;;;;;46.22;22.13;;;;;;;4.87;62.48;103758.84;5062595;28;20039;-40
2023/01/25 04:11:33;;;;;;;46.40;22.10;;;;;;;5.14;61.80;103760.16;5061428;28;20044;-42
2023/01/25 04:13:59;;;;;;;45.75;22.20;;;;;;;4.97;60.98;103750.13;5060415;28;20044;-39
2023/01/25 04:16:24;;;;;;;44.72;21.83;;;;;;;4.84;61.08;103747.31;5065024;28;20036;-42
2023/01/25 04:18:49;;;;;;;43.28;21.55;;;;;;;4.93;60.97;103747.19;5060964;28;20041;-40
2023/01/25 04:21:15;;;;;;;44.45;22.17;;;;;;;4.78;62.30;103751.97;5066336;28;20032;-41
2023/01/25 04:23:40;;;;;;;49.00;23.58;;;;;;;4.62;62.49;103747.25;5067426;28;20107;-44
2023/01/25 04:26:08;;;;;;;48.15;22.50;;;;;;;4.69;62.94;103751.22;5070538;28;20028;-40
2023/01/25 04:28:34;;;;;;;49.65;23.17;;;;;;;4.67;63.37;103748.53;5065055;28;20087;-42
2023/01/25 04:31:02;;;;;;;48.55;22.23;;;;;;;4.69;62.25;103749.56;5060255;28;20040;-42
2023/01/25 04:33:28;;;;;;;47.42;22.98;;;;;;;4.62;63.39;103736.91;5064775;28;20128;-39
2023/01/25 04:35:53;;;;;;;51.03;23.38;;;;;;;4.85;62.46;103743.97;5060581;28;20119;-41
2023/01/25 04:38:18;;;;;;;50.38;23.25;;;;;;;4.90;62.87;103735.81;5060678;28;20040;-43
2023/01/25 04:40:44;;;;;;;46.05;22.70;;;;;;;4.94;62.39;103739.53;5060053;28;20040;-40
2023/01/25 04:43:12;;;;;;;48.67;23.02;;;;;;;4.83;62.75;103733.47;5064500;28;20048;-40
2023/01/25 04:45:37;;;;;;;49.15;23.83;;;;;;;4.97;61.58;103731.13;5061024;28;20036;-41
2023/01/25 04:48:05;;;;;;;49.05;22.77;;;;;;;5.04;61.57;103729.16;5064268;28;20039;-40
2023/01/25 04:50:30;;;;;;;47.63;23.10;;;;;;;5.04;62.16;103726.59;5063581;28;20115;-40
2023/01/25 04:52:56;;;;;;;49.47;22.35;;;;;;;4.71;62.82;103721.22;5060516;28;20505;-42
2023/01/25 04:55:21;;;;;;;47.97;22.83;;;;;;;4.88;62.27;103720.94;5064148;28;20039;-39
2023/01/25 04:57:50;;;;;;;48.78;23.08;;;;;;;4.61;63.25;103724.75;5060615;28;20040;-40
2023/01/25 05:00:16;;;;;;;48.47;23.10;;;;;;;4.43;62.84;103723.22;5063852;28;20612;-41
2023/01/25 05:02:42;;;;;;;51.08;23.35;;;;;;;4.71;62.83;103724.72;5060243;28;20043;-40
2023/01/25 05:05:07;;;;;;;49.42;23.65;;;;;;;4.55;63.09;103726.81;5063902;28;20044;-40
2023/01/25 05:07:33;;;;;;;52.78;23.65;;;;;;;4.81;62.49;103726.41;5045822;28;20182;-41
2023/01/25 05:09:58;;;;;;;50.00;23.00;;;;;;;4.66;61.92;103727.72;5060073;28;20032;-41
2023/01/25 05:12:24;;;;;;;49.80;22.85;;;;;;;4.78;62.22;103729.63;5063501;28;20041;-42
2023/01/25 05:14:49;;;;;;;48.38;22.48;;;;;;;4.87;62.37;103729.50;5060143;28;20033;-43
2023/01/25 05:17:27;;;;;;;51.40;23.30;;;;;;;4.86;61.85;103728.59;5063933;28;20037;-37
2023/01/25 05:19:52;;;;;;;49.97;22.30;;;;;;;4.66;61.56;103725.13;5060174;28;20120;-41
2023/01/25 05:22:19;;;;;;;48.47;22.60;;;;;;;4.27;63.28;103731.34;5063456;28;20131;-41
2023/01/25 05:24:46;;;;;;;50.38;22.88;;;;;;;4.55;62.30;103728.50;5058892;28;20041;-41
2023/01/25 05:27:14;;;;;;;52.63;22.70;;;;;;;4.45;62.40;103713.94;5064251;28;20082;-41
2023/01/25 05:29:41;;;;;;;50.35;22.73;;;;;;;4.14;63.77;103727.63;5060333;28;20518;-40
2023/01/25 05:32:09;;;;;;;55.28;22.90;;;;;;;4.36;62.87;103728.66;5063091;28;20032;-41
2023/01/25 05:34:34;;;;;;;52.10;23.88;;;;;;;4.37;63.13;103720.13;5063594;28;20036;-40
2023/01/25 05:37:01;;;;;;;48.55;22.88;;;;;;;4.17;64.23;103721.03;5060278;28;20410;-40
2023/01/25 05:39:27;;;;;;;48.70;22.75;;;;;;;4.28;63.58;103716.75;5064340;28;20051;-42
2023/01/25 05:41:52;;;;;;;47.38;22.00;;;;;;;4.53;63.20;103715.44;5059235;28;20033;-40
2023/01/25 05:44:18;;;;;;;49.00;22.80;;;;;;;4.54;62.97;103713.78;5063870;28;20184;-40
2023/01/25 05:46:44;;;;;;;51.17;22.35;;;;;;;4.30;63.09;103712.63;5059873;28;20032;-40
2023/01/25 05:49:09;;;;;;;57.03;22.90;;;;;;;3.82;63.51;103719.72;5065245;28;20036;-42
2023/01/25 05:51:35;;;;;;;51.90;22.08;;;;;;;3.47;65.91;103716.69;5064865;28;20342;-40
2023/01/25 05:54:01;;;;;;;53.42;22.23;;;;;;;3.65;65.52;103723.44;5042143;28;20036;-41
2023/01/25 05:56:27;;;;;;;54.83;21.77;;;;;;;3.71;64.81;103729.13;5064091;28;20033;-41
2023/01/25 05:58:57;;;;;;;55.30;23.40;;;;;;;3.59;65.32;103728.06;5063191;28;20092;-41
2023/01/25 06:01:23;;;;;;;54.28;22.35;;;;;;;3.53;65.25;103727.53;5064396;28;20067;-42
2023/01/25 06:03:49;;;;;;;55.72;23.38;;;;;;;3.20;66.93;103733.19;5061063;28;20040;-41
2023/01/25 06:06:14;;;;;;;51.30;22.42;;;;;;;3.41;66.01;103732.53;5064403;28;20032;-42
2023/01/25 06:08:40;;;;;;;50.00;21.65;;;;;;;3.68;64.96;103734.00;5058951;28;20123;-42
2023/01/25 06:11:10;;;;;;;49.85;21.23;;;;;;;3.83;65.38;103732.75;5062188;28;20142;-41
2023/01/25 06:13:35;;;;;;;50.53;21.20;;;;;;;4.11;64.20;103725.69;5062946;28;20032;-40
2023/01/25 06:16:01;;;;;;;52.92;22.27;;;;;;;4.03;63.71;103735.34;5058101;28;20025;-40
2023/01/25 06:18:28;;;;;;;47.65;21.13;;;;;;;4.25;63.82;103732.00;5062153;28;20098;-39
2023/01/25 06:20:55;;;;;;;49.53;21.45;;;;;;;4.41;63.73;103732.50;5057724;28;20044;-40
2023/01/25 06:23:21;;;;;;;54.45;22.55;;;;;;;4.38;63.08;103728.03;5063055;28;20029;-40
2023/01/25 06:25:46;;;;;;;56.22;23.30;;;;;;;4.30;62.60;103720.38;5058876;28;20517;-39
2023/01/25 06:28:11;;;;;;;56.30;23.20;;;;;;;4.13;63.35;103725.81;5062579;28;20044;-43
2023/01/25 06:30:37;;;;;;;49.05;22.50;;;;;;;4.13;63.11;103721.56;5062113;28;20098;-42
2023/01/25 06:33:02;;;;;;;55.67;24.02;;;;;;;4.07;64.06;103719.38;5060465;28;20123;-44
2023/01/25 06:35:29;;;;;;;53.72;22.77;;;;;;;4.32;63.31;103722.34;5045747;28;20059;-40
2023/01/25 06:37:55;;;;;;;57.33;25.20;;;;;;;4.12;63.38;103718.84;5058734;28;20036;-43
2023/01/25 06:40:20;;;;;;;55.97;24.35;;;;;;;4.18;63.37;103716.78;5064588;28;20048;-40
2023/01/25 06:42:46;;;;;;;55.17;24.30;;;;;;;4.05;64.09;103725.16;5066225;28;20093;-40
2023/01/25 06:45:11;;;;;;;57.22;24.58;;;;;;;4.32;63.00;103724.00;5068280;28;20025;-44
2023/01/25 06:47:38;;;;;;;55.33;23.60;;;;;;;4.41;62.93;103709.28;5063142;28;20047;-40
2023/01/25 06:50:03;;;;;;;60.13;25.33;;;;;;;3.57;65.12;103720.19;5060142;28;20040;-41
2023/01/25 06:52:30;;;;;;;65.40;25.00;;;;;;;3.79;63.50;103724.59;5061661;28;20028;-40
2023/01/25 06:54:56;;;;;;;59.70;25.20;;;;;;;3.95;64.15;103725.16;5058743;28;20036;-41
2023/01/25 06:57:21;;;;;;;64.00;25.33;;;;;;;4.18;63.60;103720.25;5063668;28;20397;-41
2023/01/25 06:59:46;;;;;;;59.17;24.80;;;;;;;4.25;62.84;103708.78;5061903;28;20040;-41
2023/01/25 07:02:14;;;;;;;62.17;25.63;;;;;;;4.20;63.09;103710.06;5067109;28;20082;-40
2023/01/25 07:04:40;;;;;;;64.32;26.40;;;;;;;4.39;63.57;103706.56;5065661;28;20383;-40
2023/01/25 07:07:07;;;;;;;64.68;26.27;;;;;;;4.49;63.41;103708.25;5050782;28;20043;-41
2023/01/25 07:09:33;;;;;;;64.93;26.30;;;;;;;4.44;62.41;103705.28;5067395;28;20036;-39
2023/01/25 07:11:58;;;;;;;63.00;26.20;;;;;;;3.93;64.05;103706.97;5058160;28;20051;-40
2023/01/25 07:14:24;;;;;;;63.67;25.40;;;;;;;3.97;64.98;103711.59;5062015;28;20051;-40
2023/01/25 07:16:49;;;;;;;68.88;28.48;;;;;;;4.47;62.88;103705.53;5058076;28;20039;-40
2023/01/25 07:19:16;;;;;;;70.97;26.88;;;;;;;4.20;63.24;103708.41;5061648;28;20185;-41
2023/01/25 07:21:42;;;;;;;64.25;26.90;;;;;;;3.98;64.37;103710.81;5057257;28;20260;-40
2023/01/25 07:24:12;;;;;;;62.25;25.52;;;;;;;4.27;63.26;103709.81;5061962;28;20029;-42
2023/01/25 07:26:38;;;;;;;58.42;25.38;;;;;;;4.44;62.24;103709.53;5058164;28;20491;-40
2023/01/25 07:29:03;;;;;;;63.20;26.02;;;;;;;4.07;63.31;103708.13;5059140;28;20110;-38
2023/01/25 07:31:28;;;;;;;62.45;26.08;;;;;;;4.16;63.56;103698.56;5061237;28;20085;-42
2023/01/25 07:33:56;;;;;;;63.20;26.20;;;;;;;3.92;64.41;103696.50;5057648;28;20037;-41
2023/01/25 07:36:22;;;;;;;62.63;26.60;;;;;;;4.29;63.58;103685.91;5061924;28;20025;-42
2023/01/25 07:38:52;;;;;;;65.35;26.38;;;;;;;4.40;63.74;103684.22;5058089;28;20055;-42
2023/01/25 07:41:19;;;;;;;64.38;27.08;;;;;;;4.43;63.64;103687.97;5060696;28;20054;-48
2023/01/25 07:43:44;;;;;;;68.65;27.38;;;;;;;3.58;65.68;103691.03;5056508;28;20422;-43
2023/01/25 07:46:11;;;;;;;60.63;26.00;;;;;;;4.12;63.91;103685.28;5061294;28;20087;-42
2023/01/25 07:48:38;;;;;;;65.05;26.35;;;;;;;4.45;62.95;103670.03;5063932;28;20024;-40
2023/01/25 07:51:15;;;;;;;60.55;26.35;;;;;;;3.98;63.90;103677.28;5061176;28;20510;-40
2023/01/25 07:53:42;;;;;;;64.88;26.98;;;;;;;3.47;65.49;103678.00;5063246;28;20062;-41
2023/01/25 07:56:09;;;;;;;69.80;27.85;;;;;;;4.06;64.06;103675.34;5070903;28;20452;-44
2023/01/25 07:58:34;;;;;;;67.93;26.88;;;;;;;3.47;65.22;103678.91;5071141;28;20040;-39
2023/01/25 08:01:11;;;;;;;69.93;26.50;;;;;;;3.74;65.29;103671.69;5060113;28;20837;-41
2023/01/25 08:03:37;;;;;;;67.63;26.92;;;;;;;3.64;65.32;103670.94;5068969;28;20072;-42
2023/01/25 08:06:06;;;;;;;73.22;27.60;;;;;;;3.97;64.77;103670.28;5068291;28;20029;-41
2023/01/25 08:08:33;;;;;;;64.30;26.17;;;;;;;4.29;64.21;103667.84;5054948;28;20096;-41
2023/01/25 08:11:01;;;;;;;67.70;27.48;;;;;;;4.48;64.00;103670.25;5065811;28;20582;-41
2023/01/25 08:13:26;;;;;;;64.50;26.60;;;;;;;4.40;63.77;103660.97;5069835;28;20040;-40
2023/01/25 08:15:55;;;;;;;68.40;28.05;;;;;;;4.59;63.83;103665.97;5071893;28;20032;-42
2023/01/25 08:18:20;;;;;;;64.55;25.42;;;;;;;4.70;63.63;103665.16;5085733;28;20522;-41
2023/01/25 08:20:46;;;;;;;62.90;25.80;;;;;;;4.76;63.49;103663.06;5080682;28;20051;-43
2023/01/25 08:23:11;;;;;;;63.63;26.40;;;;;;;4.71;62.34;103660.13;5050598;28;20094;-41
2023/01/25 08:25:38;;;;;;;66.70;26.88;;;;;;;4.66;63.16;103658.84;5043757;28;20498;-40
2023/01/25 08:28:03;;;;;;;63.78;26.35;;;;;;;4.69;63.29;103655.63;5042705;28;20470;-41
2023/01/25 08:30:29;;;;;;;68.07;28.00;;;;;;;4.80;62.94;103653.13;5044260;28;20041;-43
2023/01/25 08:32:54;;;;;;;66.43;27.73;;;;;;;4.82;62.63;103650.63;5041329;28;20041;-43
2023/01/25 08:35:19;;;;;;;65.25;27.55;;;;;;;4.81;62.41;103654.94;5045828;28;20036;-41
2023/01/25 08:37:45;;;;;;;63.85;26.63;;;;;;;4.93;62.55;103649.84;5044303;28;20037;-44
2023/01/25 08:40:13;;;;;;;64.45;27.88;;;;;;;4.87;62.25;103645.09;5045717;28;20068;-38
2023/01/25 08:42:38;;;;;;;63.22;27.02;;;;;;;4.83;61.98;103645.59;5040718;28;20144;-41
2023/01/25 08:45:04;;;;;;;63.67;27.63;;;;;;;4.70;62.73;103640.22;5045379;28;20116;-41
2023/01/25 08:47:30;;;;;;;65.82;27.58;;;;;;;4.94;62.46;103648.16;5050755;28;20064;-41
2023/01/25 08:49:55;;;;;;;62.20;26.27;;;;;;;4.78;62.13;103649.50;5043676;28;20520;-42
2023/01/25 08:52:20;;;;;;;70.22;27.33;;;;;;;4.83;62.40;103648.19;5048532;28;20037;-42
2023/01/25 08:54:46;;;;;;;66.57;27.70;;;;;;;4.75;62.70;103644.09;5045417;28;20538;-41
2023/01/25 08:57:11;;;;;;;69.43;28.20;;;;;;;4.93;62.53;103646.34;5049786;28;20087;-41
2023/01/25 08:59:37;;;;;;;67.32;26.45;;;;;;;4.93;62.70;103647.25;5049934;28;20419;-40
2023/01/25 09:02:02;;;;;;;62.83;26.45;;;;;;;4.80;62.70;103647.06;5029849;28;20025;-44
2023/01/25 09:04:27;;;;;;;65.13;26.95;;;;;;;4.96;62.86;103641.41;5051416;28;20075;-40
2023/01/25 09:06:54;;;;;;;68.60;27.42;;;;;;;4.97;62.35;103640.63;5045252;28;20083;-41
2023/01/25 09:09:21;;;;;;;67.32;27.27;;;;;;;4.59;63.70;103651.38;5044349;28;20384;-41
2023/01/25 09:11:46;;;;;;;69.53;27.23;;;;;;;4.39;62.71;103641.09;5039844;28;20128;-43
2023/01/25 09:14:12;;;;;;;68.07;27.83;;;;;;;4.41;63.75;103631.78;5043886;28;20036;-40
2023/01/25 09:16:37;;;;;;;69.40;28.67;;;;;;;4.68;62.76;103638.31;5040958;28;20029;-40
2023/01/25 09:19:04;;;;;;;65.85;27.48;;;;;;;4.78;62.92;103633.09;5042813;28;20037;-41
2023/01/25 09:21:30;;;;;;;67.05;27.55;;;;;;;4.46;62.81;103638.22;5043215;28;20480;-42
2023/01/25 09:23:56;;;;;;;67.75;26.30;;;;;;;4.75;62.36;103625.13;5043270;28;20569;-40
2023/01/25 09:26:21;;;;;;;64.05;27.23;;;;;;;4.82;62.23;103620.53;5046820;28;20029;-40
2023/01/25 09:28:52;;;;;;;67.20;27.33;;;;;;;4.95;62.21;103619.84;5040595;28;20029;-42
2023/01/25 09:31:19;;;;;;;63.53;26.27;;;;;;;4.69;62.89;103615.19;5043316;28;20563;-41
2023/01/25 09:33:44;;;;;;;63.35;26.60;;;;;;;4.48;63.01;103629.84;5040036;28;20099;-42
2023/01/25 09:36:10;;;;;;;60.40;26.17;;;;;;;4.62;62.82;103618.03;5043539;28;20120;-41
2023/01/25 09:38:35;;;;;;;68.50;26.98;;;;;;;4.82;62.33;103614.47;5043721;28;20041;-42
2023/01/25 09:41:06;;;;;;;70.28;28.25;;;;;;;4.60;63.39;103609.25;5039726;28;20499;-40
2023/01/25 09:43:59;;;;;;;65.85;27.52;;;;;;;4.67;63.26;103611.56;5051858;28;20056;-44
2023/01/25 09:46:33;;;;;;;66.63;27.83;;;;;;;4.95;62.79;103606.00;5047144;28;20511;-41
2023/01/25 09:49:17;;;;;;;;;;;;;;;4.89;62.44;103604.75;5048428;28;20036;-41
2023/01/25 09:52:12;;;;;;;68.75;26.88;;;;;;;4.17;63.90;103602.25;5046617;28;20380;-40
2023/01/25 09:54:40;;;;;;;67.13;27.45;;;;;;;3.93;65.07;103601.13;5046893;28;20036;-40
2023/01/25 09:57:15;;;;;;;69.38;26.90;;;;;;;4.21;64.74;103598.28;5050428;28;20040;-41
2023/01/25 09:59:42;;;;;;;61.08;25.48;;;;;;;4.34;64.64;103595.88;5047075;28;20474;-40
2023/01/25 10:02:29;;;;;;;62.97;26.02;;;;;;;4.59;63.52;103591.03;5049942;28;20044;-40
2023/01/25 10:04:59;;;;;;;57.83;24.95;;;;;;;4.77;63.08;103580.50;5045780;28;20067;-40
2023/01/25 10:07:29;;;;;;;56.50;25.23;;;;;;;5.00;62.78;103577.13;5047499;28;20041;-41
2023/01/25 10:10:24;;;;;;;60.10;25.98;;;;;;;5.15;62.51;103561.94;5043500;28;20033;-44
2023/01/25 10:12:50;;;;;;;61.75;27.02;;;;;;;5.17;62.36;103557.81;5015152;28;20121;-43
2023/01/25 10:15:28;;;;;;;57.83;26.35;;;;;;;5.44;61.70;103554.75;5042953;28;20106;-41
2023/01/25 10:18:29;;;;;;;63.42;27.75;;;;;;;5.30;61.11;103555.38;5039032;28;20455;-41
2023/01/25 10:21:02;;;;;;;60.28;27.08;;;;;;;5.37;60.59;103556.75;5035279;28;20086;-43
2023/01/25 10:23:58;;;;;;;67.20;28.70;;;;;;;5.12;61.56;103562.59;5043378;28;20090;-44
2023/01/25 10:26:34;;;;;;;66.50;27.75;;;;;;;5.00;62.39;103550.41;5039187;28;20120;-41
2023/01/25 10:29:02;;;;;;;64.45;28.05;;;;;;;5.23;61.66;103548.84;5043506;28;20036;-41
2023/01/25 10:31:32;;;;;;;64.90;27.55;;;;;;;5.27;61.28;103544.78;5049070;28;20033;-41
2023/01/25 10:34:00;;;;;;;68.03;28.15;;;;;;;5.34;60.97;103544.47;5043282;28;21121;-42
2023/01/25 10:36:29;;;;;;;67.43;28.13;;;;;;;5.41;61.38;103539.00;5044669;28;20045;-42
2023/01/25 10:38:59;;;;;;;62.83;27.55;;;;;;;5.39;60.13;103537.06;5039017;28;20041;-41
2023/01/25 10:41:33;;;;;;;69.43;27.88;;;;;;;5.44;60.38;103533.13;5043751;28;20044;-40
2023/01/25 10:46:48;;;;;;;67.40;28.52;;;;;;;5.53;60.40;103524.41;5039189;28;20448;-42
2023/01/25 10:49:21;;;;;;;64.65;27.98;;;;;;;5.39;60.56;103537.97;5042110;28;20082;-42
2023/01/25 10:51:46;;;;;;;64.72;27.75;;;;;;;5.11;61.12;103524.63;5040959;28;20040;-41
2023/01/25 10:54:14;;;;;;;69.05;28.38;;;;;;;5.36;60.95;103519.66;5044649;28;20048;-37
2023/01/25 10:56:42;;;;;;;67.47;28.35;;;;;;;5.37;60.73;103511.06;5039732;28;20029;-41
2023/01/25 10:59:23;;;;;;;64.53;28.42;;;;;;;5.49;60.61;103495.59;5044505;28;20040;-36
2023/01/25 11:01:48;;;;;;;63.50;27.27;;;;;;;5.45;60.33;103493.56;5037222;28;20509;-44
2023/01/25 11:04:34;;;;;;;68.45;29.17;;;;;;;5.42;60.49;103493.34;5042391;28;20073;-43
2023/01/25 11:07:02;;;;;;;66.63;27.40;;;;;;;4.96;61.07;103492.38;5038426;28;20094;-41
2023/01/25 11:09:27;;;;;;;64.25;28.25;;;;;;;5.40;61.12;103481.97;5042248;28;20033;-40
2023/01/25 11:12:06;;;;;;;63.42;27.00;;;;;;;5.56;60.56;103479.72;5037465;28;20033;-41
2023/01/25 11:14:32;;;;;;;63.67;27.08;;;;;;;5.62;60.56;103469.84;5042331;28;20063;-40
2023/01/25 11:17:00;;;;;;;61.00;25.77;;;;;;;4.65;62.25;103475.25;5040487;28;20033;-41
2023/01/25 11:19:37;;;;;;;67.15;26.35;;;;;;;4.56;62.45;103472.88;5047638;28;20047;-43
2023/01/25 11:22:19;;;;;;;56.40;25.27;;;;;;;4.73;62.22;103476.78;5039971;28;20116;-44